sensor_id;sensor_type;location;lat;lon;timestamp;temperature;humidity
58809;DHT22;44579;51.672;7.834;2023-12-20T00:00:21;8.00;96.40
58809;DHT22;44579;51.672;7.834;2023-12-20T00:02:48;8.00;96.30
58809;DHT22;44579;51.672;7.834;2023-12-20T00:05:15;8.00;96.30
58809;DHT22;44579;51.672;7.834;2023-12-20T00:07:42;7.90;96.30
58809;DHT22;44579;51.672;7.834;2023-12-20T00:10:09;7.90;96.30
58809;DHT22;44579;51.672;7.834;2023-12-20T00:12:36;7.90;96.30
58809;DHT22;44579;51.672;7.834;2023-12-20T00:15:03;7.90;96.30
58809;DHT22;44579;51.672;7.834;2023-12-20T00:17:30;7.90;96.30
58809;DHT22;44579;51.672;7.834;2023-12-20T00:19:56;7.90;96.30
58809;DHT22;44579;51.672;7.834;2023-12-20T00:22:23;7.90;96.20
58809;DHT22;44579;51.672;7.834;2023-12-20T00:24:50;7.90;96.20
58809;DHT22;44579;51.672;7.834;2023-12-20T00:27:17;7.80;96.20
58809;DHT22;44579;51.672;7.834;2023-12-20T00:29:44;7.80;96.20
58809;DHT22;44579;51.672;7.834;2023-12-20T00:32:14;7.80;96.20
58809;DHT22;44579;51.672;7.834;2023-12-20T00:34:41;7.80;96.20
58809;DHT22;44579;51.672;7.834;2023-12-20T00:37:08;7.70;96.20
58809;DHT22;44579;51.672;7.834;2023-12-20T00:39:35;7.70;96.10
58809;DHT22;44579;51.672;7.834;2023-12-20T00:42:01;7.70;96.10
58809;DHT22;44579;51.672;7.834;2023-12-20T00:44:28;7.70;96.10
58809;DHT22;44579;51.672;7.834;2023-12-20T00:46:55;7.70;96.00
58809;DHT22;44579;51.672;7.834;2023-12-20T00:49:22;7.60;96.00
58809;DHT22;44579;51.672;7.834;2023-12-20T00:51:50;7.60;96.00
58809;DHT22;44579;51.672;7.834;2023-12-20T00:54:19;7.60;96.00
58809;DHT22;44579;51.672;7.834;2023-12-20T00:56:45;7.60;96.00
58809;DHT22;44579;51.672;7.834;2023-12-20T00:59:12;7.60;96.40
58809;DHT22;44579;51.672;7.834;2023-12-20T01:01:39;7.50;95.90
58809;DHT22;44579;51.672;7.834;2023-12-20T01:04:06;7.50;95.90
58809;DHT22;44579;51.672;7.834;2023-12-20T01:06:33;7.50;96.00
58809;DHT22;44579;51.672;7.834;2023-12-20T01:08:59;7.50;96.00
58809;DHT22;44579;51.672;7.834;2023-12-20T01:11:26;7.50;96.00
58809;DHT22;44579;51.672;7.834;2023-12-20T01:13:53;7.50;96.00
58809;DHT22;44579;51.672;7.834;2023-12-20T01:16:20;7.50;96.00
58809;DHT22;44579;51.672;7.834;2023-12-20T01:18:47;7.50;96.00
58809;DHT22;44579;51.672;7.834;2023-12-20T01:21:14;7.50;96.00
58809;DHT22;44579;51.672;7.834;2023-12-20T01:23:40;7.50;96.10
58809;DHT22;44579;51.672;7.834;2023-12-20T01:26:07;7.60;96.10
58809;DHT22;44579;51.672;7.834;2023-12-20T01:28:34;7.60;96.10
58809;DHT22;44579;51.672;7.834;2023-12-20T01:31:00;7.60;96.10
58809;DHT22;44579;51.672;7.834;2023-12-20T01:33:27;7.60;96.10
58809;DHT22;44579;51.672;7.834;2023-12-20T01:35:54;7.60;96.10
58809;DHT22;44579;51.672;7.834;2023-12-20T01:38:21;7.60;96.00
58809;DHT22;44579;51.672;7.834;2023-12-20T01:40:48;7.50;96.00
58809;DHT22;44579;51.672;7.834;2023-12-20T01:43:14;7.40;95.90
58809;DHT22;44579;51.672;7.834;2023-12-20T01:45:41;7.40;95.90
58809;DHT22;44579;51.672;7.834;2023-12-20T01:48:08;7.30;95.90
58809;DHT22;44579;51.672;7.834;2023-12-20T01:50:36;7.30;95.90
58809;DHT22;44579;51.672;7.834;2023-12-20T01:53:05;7.30;95.90
58809;DHT22;44579;51.672;7.834;2023-12-20T01:55:34;7.20;96.00
58809;DHT22;44579;51.672;7.834;2023-12-20T01:58:02;7.20;96.00
58809;DHT22;44579;51.672;7.834;2023-12-20T02:00:29;7.20;96.00
58809;DHT22;44579;51.672;7.834;2023-12-20T02:02:57;7.10;95.90
58809;DHT22;44579;51.672;7.834;2023-12-20T02:05:29;7.10;95.90
58809;DHT22;44579;51.672;7.834;2023-12-20T02:07:56;7.10;95.80
58809;DHT22;44579;51.672;7.834;2023-12-20T02:10:23;7.00;95.80
58809;DHT22;44579;51.672;7.834;2023-12-20T02:12:50;7.00;95.90
58809;DHT22;44579;51.672;7.834;2023-12-20T02:15:17;7.00;95.90
58809;DHT22;44579;51.672;7.834;2023-12-20T02:17:45;7.00;95.90
58809;DHT22;44579;51.672;7.834;2023-12-20T02:20:13;7.00;95.90
58809;DHT22;44579;51.672;7.834;2023-12-20T02:22:40;7.00;95.80
58809;DHT22;44579;51.672;7.834;2023-12-20T02:25:07;7.00;95.70
58809;DHT22;44579;51.672;7.834;2023-12-20T02:27:34;7.00;95.70
58809;DHT22;44579;51.672;7.834;2023-12-20T02:30:01;7.00;95.70
58809;DHT22;44579;51.672;7.834;2023-12-20T02:32:28;7.00;95.80
58809;DHT22;44579;51.672;7.834;2023-12-20T02:34:55;7.00;95.80
58809;DHT22;44579;51.672;7.834;2023-12-20T02:37:23;7.00;95.80
58809;DHT22;44579;51.672;7.834;2023-12-20T02:39:50;7.00;95.80
58809;DHT22;44579;51.672;7.834;2023-12-20T02:42:17;7.00;95.90
58809;DHT22;44579;51.672;7.834;2023-12-20T02:44:46;7.00;95.90
58809;DHT22;44579;51.672;7.834;2023-12-20T02:47:13;7.00;95.80
58809;DHT22;44579;51.672;7.834;2023-12-20T02:49:40;7.00;95.80
58809;DHT22;44579;51.672;7.834;2023-12-20T02:52:07;7.10;95.80
58809;DHT22;44579;51.672;7.834;2023-12-20T02:54:33;7.10;95.80
58809;DHT22;44579;51.672;7.834;2023-12-20T02:57:00;7.10;95.80
58809;DHT22;44579;51.672;7.834;2023-12-20T02:59:27;7.10;95.80
58809;DHT22;44579;51.672;7.834;2023-12-20T03:01:54;7.10;95.80
58809;DHT22;44579;51.672;7.834;2023-12-20T03:04:21;7.10;95.80
58809;DHT22;44579;51.672;7.834;2023-12-20T03:06:47;7.10;95.80
58809;DHT22;44579;51.672;7.834;2023-12-20T03:09:14;7.10;95.80
58809;DHT22;44579;51.672;7.834;2023-12-20T03:11:41;7.10;95.50
58809;DHT22;44579;51.672;7.834;2023-12-20T03:14:08;7.20;95.90
58809;DHT22;44579;51.672;7.834;2023-12-20T03:16:35;7.10;95.80
58809;DHT22;44579;51.672;7.834;2023-12-20T03:19:03;7.10;95.80
58809;DHT22;44579;51.672;7.834;2023-12-20T03:21:30;7.20;95.90
58809;DHT22;44579;51.672;7.834;2023-12-20T03:23:57;7.20;95.80
58809;DHT22;44579;51.672;7.834;2023-12-20T03:26:24;7.10;95.80
58809;DHT22;44579;51.672;7.834;2023-12-20T03:28:51;7.10;95.90
58809;DHT22;44579;51.672;7.834;2023-12-20T03:31:18;7.20;95.90
58809;DHT22;44579;51.672;7.834;2023-12-20T03:33:46;7.10;95.90
58809;DHT22;44579;51.672;7.834;2023-12-20T03:36:13;7.10;95.90
58809;DHT22;44579;51.672;7.834;2023-12-20T03:38:40;7.20;96.00
58809;DHT22;44579;51.672;7.834;2023-12-20T03:41:06;7.10;95.90
58809;DHT22;44579;51.672;7.834;2023-12-20T03:43:33;7.10;95.90
58809;DHT22;44579;51.672;7.834;2023-12-20T03:46:00;7.10;95.80
58809;DHT22;44579;51.672;7.834;2023-12-20T03:48:27;7.00;95.80
58809;DHT22;44579;51.672;7.834;2023-12-20T03:50:53;7.00;95.90
58809;DHT22;44579;51.672;7.834;2023-12-20T03:53:20;7.00;96.00
58809;DHT22;44579;51.672;7.834;2023-12-20T03:55:47;7.00;96.00
58809;DHT22;44579;51.672;7.834;2023-12-20T03:58:14;7.00;96.10
58809;DHT22;44579;51.672;7.834;2023-12-20T04:00:40;7.00;96.10
58809;DHT22;44579;51.672;7.834;2023-12-20T04:03:07;7.10;96.10
58809;DHT22;44579;51.672;7.834;2023-12-20T04:05:34;7.10;96.10
58809;DHT22;44579;51.672;7.834;2023-12-20T04:08:01;7.00;96.00
58809;DHT22;44579;51.672;7.834;2023-12-20T04:10:28;7.00;96.10
58809;DHT22;44579;51.672;7.834;2023-12-20T04:12:55;7.00;96.10
58809;DHT22;44579;51.672;7.834;2023-12-20T04:15:22;7.00;96.10
58809;DHT22;44579;51.672;7.834;2023-12-20T04:17:48;6.90;96.00
58809;DHT22;44579;51.672;7.834;2023-12-20T04:20:16;6.90;96.00
58809;DHT22;44579;51.672;7.834;2023-12-20T04:22:43;6.90;96.00
58809;DHT22;44579;51.672;7.834;2023-12-20T04:25:09;6.80;95.90
58809;DHT22;44579;51.672;7.834;2023-12-20T04:27:36;6.70;95.90
58809;DHT22;44579;51.672;7.834;2023-12-20T04:30:06;6.70;96.00
58809;DHT22;44579;51.672;7.834;2023-12-20T04:32:34;6.70;96.00
58809;DHT22;44579;51.672;7.834;2023-12-20T04:35:01;6.70;96.00
58809;DHT22;44579;51.672;7.834;2023-12-20T04:37:28;6.80;96.00
58809;DHT22;44579;51.672;7.834;2023-12-20T04:39:54;6.80;96.00
58809;DHT22;44579;51.672;7.834;2023-12-20T04:42:21;6.80;96.00
58809;DHT22;44579;51.672;7.834;2023-12-20T04:44:48;6.90;96.00
58809;DHT22;44579;51.672;7.834;2023-12-20T04:47:15;6.80;95.90
58809;DHT22;44579;51.672;7.834;2023-12-20T04:49:42;6.80;95.90
58809;DHT22;44579;51.672;7.834;2023-12-20T04:52:09;6.80;95.90
58809;DHT22;44579;51.672;7.834;2023-12-20T04:54:35;6.80;95.90
58809;DHT22;44579;51.672;7.834;2023-12-20T04:57:04;6.80;95.90
58809;DHT22;44579;51.672;7.834;2023-12-20T04:59:31;6.80;96.00
58809;DHT22;44579;51.672;7.834;2023-12-20T05:01:58;6.80;96.10
58809;DHT22;44579;51.672;7.834;2023-12-20T05:04:25;6.80;96.10
58809;DHT22;44579;51.672;7.834;2023-12-20T05:06:52;6.80;96.10
58809;DHT22;44579;51.672;7.834;2023-12-20T05:09:19;6.80;96.10
58809;DHT22;44579;51.672;7.834;2023-12-20T05:11:46;6.90;96.20
58809;DHT22;44579;51.672;7.834;2023-12-20T05:14:12;6.90;96.30
58809;DHT22;44579;51.672;7.834;2023-12-20T05:16:39;6.90;96.20
58809;DHT22;44579;51.672;7.834;2023-12-20T05:19:08;6.90;96.30
58809;DHT22;44579;51.672;7.834;2023-12-20T05:21:35;6.90;96.30
58809;DHT22;44579;51.672;7.834;2023-12-20T05:24:02;6.90;96.40
58809;DHT22;44579;51.672;7.834;2023-12-20T05:26:29;6.90;96.40
58809;DHT22;44579;51.672;7.834;2023-12-20T05:28:57;6.90;96.30
58809;DHT22;44579;51.672;7.834;2023-12-20T05:31:23;6.90;96.20
58809;DHT22;44579;51.672;7.834;2023-12-20T05:33:50;6.90;96.20
58809;DHT22;44579;51.672;7.834;2023-12-20T05:36:17;6.90;96.30
58809;DHT22;44579;51.672;7.834;2023-12-20T05:38:44;6.80;96.20
58809;DHT22;44579;51.672;7.834;2023-12-20T05:41:11;6.80;96.20
58809;DHT22;44579;51.672;7.834;2023-12-20T05:43:38;6.80;96.30
58809;DHT22;44579;51.672;7.834;2023-12-20T05:46:05;6.80;96.30
58809;DHT22;44579;51.672;7.834;2023-12-20T05:48:31;6.80;96.20
58809;DHT22;44579;51.672;7.834;2023-12-20T05:50:58;6.80;96.20
58809;DHT22;44579;51.672;7.834;2023-12-20T05:53:25;6.70;96.20
58809;DHT22;44579;51.672;7.834;2023-12-20T05:55:52;6.70;96.20
58809;DHT22;44579;51.672;7.834;2023-12-20T05:58:19;6.70;96.30
58809;DHT22;44579;51.672;7.834;2023-12-20T06:00:46;6.80;96.30
58809;DHT22;44579;51.672;7.834;2023-12-20T06:03:12;6.80;96.30
58809;DHT22;44579;51.672;7.834;2023-12-20T06:05:41;6.80;96.30
58809;DHT22;44579;51.672;7.834;2023-12-20T06:08:07;6.80;96.30
58809;DHT22;44579;51.672;7.834;2023-12-20T06:10:34;6.80;96.20
58809;DHT22;44579;51.672;7.834;2023-12-20T06:13:01;6.80;96.20
58809;DHT22;44579;51.672;7.834;2023-12-20T06:15:28;6.80;96.20
58809;DHT22;44579;51.672;7.834;2023-12-20T06:17:55;6.90;96.20
58809;DHT22;44579;51.672;7.834;2023-12-20T06:20:22;6.90;96.30
58809;DHT22;44579;51.672;7.834;2023-12-20T06:22:49;6.90;96.30
58809;DHT22;44579;51.672;7.834;2023-12-20T06:25:16;6.90;96.30
58809;DHT22;44579;51.672;7.834;2023-12-20T06:27:43;6.90;96.30
58809;DHT22;44579;51.672;7.834;2023-12-20T06:30:10;6.90;96.30
58809;DHT22;44579;51.672;7.834;2023-12-20T06:32:37;6.90;96.40
58809;DHT22;44579;51.672;7.834;2023-12-20T06:35:06;6.90;96.40
58809;DHT22;44579;51.672;7.834;2023-12-20T06:37:33;6.90;96.40
58809;DHT22;44579;51.672;7.834;2023-12-20T06:39:59;6.90;96.40
58809;DHT22;44579;51.672;7.834;2023-12-20T06:42:26;6.90;96.40
58809;DHT22;44579;51.672;7.834;2023-12-20T06:44:54;6.90;96.40
58809;DHT22;44579;51.672;7.834;2023-12-20T06:47:21;6.90;96.40
58809;DHT22;44579;51.672;7.834;2023-12-20T06:49:48;7.00;96.40
58809;DHT22;44579;51.672;7.834;2023-12-20T06:52:15;6.90;96.40
58809;DHT22;44579;51.672;7.834;2023-12-20T06:54:42;7.00;96.40
58809;DHT22;44579;51.672;7.834;2023-12-20T06:57:08;6.90;96.40
58809;DHT22;44579;51.672;7.834;2023-12-20T06:59:40;7.00;96.40
58809;DHT22;44579;51.672;7.834;2023-12-20T07:02:06;6.90;96.40
58809;DHT22;44579;51.672;7.834;2023-12-20T07:04:41;6.90;96.50
58809;DHT22;44579;51.672;7.834;2023-12-20T07:07:07;6.90;96.50
58809;DHT22;44579;51.672;7.834;2023-12-20T07:09:35;6.90;96.50
58809;DHT22;44579;51.672;7.834;2023-12-20T07:12:01;7.00;96.50
58809;DHT22;44579;51.672;7.834;2023-12-20T07:14:28;6.90;96.50
58809;DHT22;44579;51.672;7.834;2023-12-20T07:16:56;7.00;96.50
58809;DHT22;44579;51.672;7.834;2023-12-20T07:19:23;7.00;96.50
58809;DHT22;44579;51.672;7.834;2023-12-20T07:21:50;7.00;96.50
58809;DHT22;44579;51.672;7.834;2023-12-20T07:24:17;6.90;96.50
58809;DHT22;44579;51.672;7.834;2023-12-20T07:26:44;7.00;96.50
58809;DHT22;44579;51.672;7.834;2023-12-20T07:29:11;7.00;96.50
58809;DHT22;44579;51.672;7.834;2023-12-20T07:31:37;6.90;96.50
58809;DHT22;44579;51.672;7.834;2023-12-20T07:34:05;6.90;96.60
58809;DHT22;44579;51.672;7.834;2023-12-20T07:36:32;7.00;96.60
58809;DHT22;44579;51.672;7.834;2023-12-20T07:38:59;7.00;96.60
58809;DHT22;44579;51.672;7.834;2023-12-20T07:41:26;7.00;96.60
58809;DHT22;44579;51.672;7.834;2023-12-20T07:43:53;7.00;96.60
58809;DHT22;44579;51.672;7.834;2023-12-20T07:46:20;7.00;96.60
58809;DHT22;44579;51.672;7.834;2023-12-20T07:48:49;7.00;96.60
58809;DHT22;44579;51.672;7.834;2023-12-20T07:51:18;7.00;96.60
58809;DHT22;44579;51.672;7.834;2023-12-20T07:53:47;7.00;96.60
58809;DHT22;44579;51.672;7.834;2023-12-20T07:56:15;7.00;96.60
58809;DHT22;44579;51.672;7.834;2023-12-20T07:58:45;7.00;96.60
58809;DHT22;44579;51.672;7.834;2023-12-20T08:01:19;7.00;96.60
58809;DHT22;44579;51.672;7.834;2023-12-20T08:03:51;7.00;96.60
58809;DHT22;44579;51.672;7.834;2023-12-20T08:06:19;7.10;96.60
58809;DHT22;44579;51.672;7.834;2023-12-20T08:08:46;7.10;96.70
58809;DHT22;44579;51.672;7.834;2023-12-20T08:11:24;7.00;96.60
58809;DHT22;44579;51.672;7.834;2023-12-20T08:14:00;7.00;96.70
58809;DHT22;44579;51.672;7.834;2023-12-20T08:16:27;7.10;96.80
58809;DHT22;44579;51.672;7.834;2023-12-20T08:18:54;7.10;96.80
58809;DHT22;44579;51.672;7.834;2023-12-20T08:21:22;7.10;96.80
58809;DHT22;44579;51.672;7.834;2023-12-20T08:23:51;7.10;96.80
58809;DHT22;44579;51.672;7.834;2023-12-20T08:26:20;7.10;96.80
58809;DHT22;44579;51.672;7.834;2023-12-20T08:28:50;7.10;96.80
58809;DHT22;44579;51.672;7.834;2023-12-20T08:31:19;7.10;96.80
58809;DHT22;44579;51.672;7.834;2023-12-20T08:33:48;7.20;96.80
58809;DHT22;44579;51.672;7.834;2023-12-20T08:36:17;7.10;96.80
58809;DHT22;44579;51.672;7.834;2023-12-20T08:38:45;7.20;96.80
58809;DHT22;44579;51.672;7.834;2023-12-20T08:41:15;7.20;96.80
58809;DHT22;44579;51.672;7.834;2023-12-20T08:43:42;7.20;96.80
58809;DHT22;44579;51.672;7.834;2023-12-20T08:46:09;7.20;96.80
58809;DHT22;44579;51.672;7.834;2023-12-20T08:48:36;7.20;96.80
58809;DHT22;44579;51.672;7.834;2023-12-20T08:51:06;7.20;96.80
58809;DHT22;44579;51.672;7.834;2023-12-20T08:53:35;7.20;96.80
58809;DHT22;44579;51.672;7.834;2023-12-20T08:56:02;7.20;96.80
58809;DHT22;44579;51.672;7.834;2023-12-20T08:58:29;7.20;96.80
58809;DHT22;44579;51.672;7.834;2023-12-20T09:00:57;7.20;96.90
58809;DHT22;44579;51.672;7.834;2023-12-20T09:03:27;7.20;96.90
58809;DHT22;44579;51.672;7.834;2023-12-20T09:05:59;7.20;96.90
58809;DHT22;44579;51.672;7.834;2023-12-20T09:08:35;7.20;97.00
58809;DHT22;44579;51.672;7.834;2023-12-20T09:11:11;7.20;96.90
58809;DHT22;44579;51.672;7.834;2023-12-20T09:13:38;7.20;96.90
58809;DHT22;44579;51.672;7.834;2023-12-20T09:16:06;7.30;97.00
58809;DHT22;44579;51.672;7.834;2023-12-20T09:18:33;7.30;96.90
58809;DHT22;44579;51.672;7.834;2023-12-20T09:21:00;7.30;97.00
58809;DHT22;44579;51.672;7.834;2023-12-20T09:23:27;7.30;97.00
58809;DHT22;44579;51.672;7.834;2023-12-20T09:25:54;7.30;97.00
58809;DHT22;44579;51.672;7.834;2023-12-20T09:28:24;7.30;97.00
58809;DHT22;44579;51.672;7.834;2023-12-20T09:30:51;7.30;97.00
58809;DHT22;44579;51.672;7.834;2023-12-20T09:33:21;7.30;97.00
58809;DHT22;44579;51.672;7.834;2023-12-20T09:35:51;7.30;97.10
58809;DHT22;44579;51.672;7.834;2023-12-20T09:38:19;7.40;97.10
58809;DHT22;44579;51.672;7.834;2023-12-20T09:40:46;7.30;97.10
58809;DHT22;44579;51.672;7.834;2023-12-20T09:43:15;7.40;97.10
58809;DHT22;44579;51.672;7.834;2023-12-20T09:45:46;7.40;97.20
58809;DHT22;44579;51.672;7.834;2023-12-20T09:48:13;7.40;97.20
58809;DHT22;44579;51.672;7.834;2023-12-20T09:50:44;7.40;97.20
58809;DHT22;44579;51.672;7.834;2023-12-20T09:53:17;7.50;97.30
58809;DHT22;44579;51.672;7.834;2023-12-20T09:55:46;7.50;97.30
58809;DHT22;44579;51.672;7.834;2023-12-20T09:58:16;7.50;97.30
58809;DHT22;44579;51.672;7.834;2023-12-20T10:00:44;7.50;97.30
58809;DHT22;44579;51.672;7.834;2023-12-20T10:03:14;7.50;97.40
58809;DHT22;44579;51.672;7.834;2023-12-20T10:05:42;7.50;97.40
58809;DHT22;44579;51.672;7.834;2023-12-20T10:08:10;7.50;97.50
58809;DHT22;44579;51.672;7.834;2023-12-20T10:10:37;7.50;97.50
58809;DHT22;44579;51.672;7.834;2023-12-20T10:13:14;7.60;97.50
58809;DHT22;44579;51.672;7.834;2023-12-20T10:15:41;7.60;97.50
58809;DHT22;44579;51.672;7.834;2023-12-20T10:18:20;7.60;97.50
58809;DHT22;44579;51.672;7.834;2023-12-20T10:20:47;7.60;97.50
58809;DHT22;44579;51.672;7.834;2023-12-20T10:23:15;7.60;97.50
58809;DHT22;44579;51.672;7.834;2023-12-20T10:25:42;7.70;97.50
58809;DHT22;44579;51.672;7.834;2023-12-20T10:28:15;7.70;97.50
58809;DHT22;44579;51.672;7.834;2023-12-20T10:30:46;7.70;97.50
58809;DHT22;44579;51.672;7.834;2023-12-20T10:33:15;7.60;97.50
58809;DHT22;44579;51.672;7.834;2023-12-20T10:35:49;7.60;97.50
58809;DHT22;44579;51.672;7.834;2023-12-20T10:38:22;7.60;97.50
58809;DHT22;44579;51.672;7.834;2023-12-20T10:40:52;7.60;97.50
58809;DHT22;44579;51.672;7.834;2023-12-20T10:43:21;7.60;97.50
58809;DHT22;44579;51.672;7.834;2023-12-20T10:45:48;7.60;97.50
58809;DHT22;44579;51.672;7.834;2023-12-20T10:48:15;7.70;97.60
58809;DHT22;44579;51.672;7.834;2023-12-20T10:50:42;7.70;97.60
58809;DHT22;44579;51.672;7.834;2023-12-20T10:53:12;7.70;97.60
58809;DHT22;44579;51.672;7.834;2023-12-20T10:55:39;7.70;97.60
58809;DHT22;44579;51.672;7.834;2023-12-20T10:58:07;7.70;97.60
58809;DHT22;44579;51.672;7.834;2023-12-20T11:00:41;7.70;97.60
58809;DHT22;44579;51.672;7.834;2023-12-20T11:03:10;7.70;97.60
58809;DHT22;44579;51.672;7.834;2023-12-20T11:05:52;7.70;97.70
58809;DHT22;44579;51.672;7.834;2023-12-20T11:08:33;7.70;97.70
58809;DHT22;44579;51.672;7.834;2023-12-20T11:13:55;7.70;97.70
58809;DHT22;44579;51.672;7.834;2023-12-20T11:16:22;7.70;97.70
58809;DHT22;44579;51.672;7.834;2023-12-20T11:18:51;7.70;97.60
58809;DHT22;44579;51.672;7.834;2023-12-20T11:21:19;7.70;97.70
58809;DHT22;44579;51.672;7.834;2023-12-20T11:23:46;7.70;97.70
58809;DHT22;44579;51.672;7.834;2023-12-20T11:26:15;7.80;97.70
58809;DHT22;44579;51.672;7.834;2023-12-20T11:28:43;7.70;97.70
58809;DHT22;44579;51.672;7.834;2023-12-20T11:31:12;7.80;97.80
58809;DHT22;44579;51.672;7.834;2023-12-20T11:33:41;7.80;97.90
58809;DHT22;44579;51.672;7.834;2023-12-20T11:36:14;7.80;97.80
58809;DHT22;44579;51.672;7.834;2023-12-20T11:38:49;7.90;97.80
58809;DHT22;44579;51.672;7.834;2023-12-20T11:41:21;7.80;98.20
58809;DHT22;44579;51.672;7.834;2023-12-20T11:43:48;7.90;97.80
58809;DHT22;44579;51.672;7.834;2023-12-20T11:46:31;7.80;97.80
58809;DHT22;44579;51.672;7.834;2023-12-20T11:48:59;7.80;97.80
58809;DHT22;44579;51.672;7.834;2023-12-20T11:51:27;7.90;97.80
58809;DHT22;44579;51.672;7.834;2023-12-20T11:53:55;7.90;97.80
58809;DHT22;44579;51.672;7.834;2023-12-20T11:56:21;7.80;97.80
58809;DHT22;44579;51.672;7.834;2023-12-20T11:58:51;7.80;97.80
58809;DHT22;44579;51.672;7.834;2023-12-20T12:01:19;7.90;97.90
58809;DHT22;44579;51.672;7.834;2023-12-20T12:03:48;7.90;97.90
58809;DHT22;44579;51.672;7.834;2023-12-20T12:06:16;7.90;98.00
58809;DHT22;44579;51.672;7.834;2023-12-20T12:08:43;8.10;98.20
58809;DHT22;44579;51.672;7.834;2023-12-20T12:11:10;8.20;98.20
58809;DHT22;44579;51.672;7.834;2023-12-20T12:13:37;8.30;98.20
58809;DHT22;44579;51.672;7.834;2023-12-20T12:16:08;8.40;98.30
58809;DHT22;44579;51.672;7.834;2023-12-20T12:18:36;8.40;98.70
58809;DHT22;44579;51.672;7.834;2023-12-20T12:21:04;8.40;98.30
58809;DHT22;44579;51.672;7.834;2023-12-20T12:23:41;8.30;98.20
58809;DHT22;44579;51.672;7.834;2023-12-20T12:26:08;8.40;98.20
58809;DHT22;44579;51.672;7.834;2023-12-20T12:28:41;8.30;98.10
58809;DHT22;44579;51.672;7.834;2023-12-20T12:31:17;8.20;98.10
58809;DHT22;44579;51.672;7.834;2023-12-20T12:33:44;8.20;98.20
58809;DHT22;44579;51.672;7.834;2023-12-20T12:36:15;8.20;98.20
58809;DHT22;44579;51.672;7.834;2023-12-20T12:38:45;8.30;98.30
58809;DHT22;44579;51.672;7.834;2023-12-20T12:41:15;8.30;98.20
58809;DHT22;44579;51.672;7.834;2023-12-20T12:43:43;8.30;98.20
58809;DHT22;44579;51.672;7.834;2023-12-20T12:46:12;8.40;98.20
58809;DHT22;44579;51.672;7.834;2023-12-20T12:48:40;8.40;98.20
58809;DHT22;44579;51.672;7.834;2023-12-20T12:51:13;8.30;98.10
58809;DHT22;44579;51.672;7.834;2023-12-20T12:57:11;8.20;98.00
58809;DHT22;44579;51.672;7.834;2023-12-20T12:59:39;8.00;98.00
58809;DHT22;44579;51.672;7.834;2023-12-20T13:02:09;8.10;98.10
58809;DHT22;44579;51.672;7.834;2023-12-20T13:04:36;8.10;98.10
58809;DHT22;44579;51.672;7.834;2023-12-20T13:07:04;8.10;98.10
58809;DHT22;44579;51.672;7.834;2023-12-20T13:09:31;8.10;98.50
58809;DHT22;44579;51.672;7.834;2023-12-20T13:11:59;8.20;98.10
58809;DHT22;44579;51.672;7.834;2023-12-20T13:14:31;8.20;98.10
58809;DHT22;44579;51.672;7.834;2023-12-20T13:16:58;8.20;98.10
58809;DHT22;44579;51.672;7.834;2023-12-20T13:19:25;8.20;98.10
58809;DHT22;44579;51.672;7.834;2023-12-20T13:21:53;8.20;98.10
58809;DHT22;44579;51.672;7.834;2023-12-20T13:24:33;8.20;98.10
58809;DHT22;44579;51.672;7.834;2023-12-20T13:27:50;8.10;98.00
58809;DHT22;44579;51.672;7.834;2023-12-20T13:30:57;8.10;98.00
58809;DHT22;44579;51.672;7.834;2023-12-20T13:33:40;8.10;98.30
58809;DHT22;44579;51.672;7.834;2023-12-20T13:36:07;8.10;97.90
58809;DHT22;44579;51.672;7.834;2023-12-20T13:38:34;8.10;98.00
58809;DHT22;44579;51.672;7.834;2023-12-20T13:41:12;8.10;97.90
58809;DHT22;44579;51.672;7.834;2023-12-20T13:43:40;8.20;97.90
58809;DHT22;44579;51.672;7.834;2023-12-20T13:46:26;8.20;97.90
58809;DHT22;44579;51.672;7.834;2023-12-20T13:49:01;8.20;97.90
58809;DHT22;44579;51.672;7.834;2023-12-20T13:51:32;8.20;97.90
58809;DHT22;44579;51.672;7.834;2023-12-20T13:54:00;8.20;97.90
58809;DHT22;44579;51.672;7.834;2023-12-20T13:56:28;8.20;97.90
58809;DHT22;44579;51.672;7.834;2023-12-20T13:59:05;8.20;97.80
58809;DHT22;44579;51.672;7.834;2023-12-20T14:01:34;8.20;97.80
58809;DHT22;44579;51.672;7.834;2023-12-20T14:04:05;8.10;97.70
58809;DHT22;44579;51.672;7.834;2023-12-20T14:06:38;8.20;97.80
58809;DHT22;44579;51.672;7.834;2023-12-20T14:09:06;8.20;97.80
58809;DHT22;44579;51.672;7.834;2023-12-20T14:11:48;8.10;97.60
58809;DHT22;44579;51.672;7.834;2023-12-20T14:14:18;8.10;97.50
58809;DHT22;44579;51.672;7.834;2023-12-20T14:16:55;8.00;97.50
58809;DHT22;44579;51.672;7.834;2023-12-20T14:19:36;8.00;97.50
58809;DHT22;44579;51.672;7.834;2023-12-20T14:22:06;8.00;97.50
58809;DHT22;44579;51.672;7.834;2023-12-20T14:24:36;8.00;97.40
58809;DHT22;44579;51.672;7.834;2023-12-20T14:27:03;8.00;97.40
58809;DHT22;44579;51.672;7.834;2023-12-20T14:29:30;8.00;97.30
58809;DHT22;44579;51.672;7.834;2023-12-20T14:31:57;8.00;97.30
58809;DHT22;44579;51.672;7.834;2023-12-20T14:34:24;7.90;97.30
58809;DHT22;44579;51.672;7.834;2023-12-20T14:36:56;7.90;97.30
58809;DHT22;44579;51.672;7.834;2023-12-20T14:39:24;7.90;97.30
58809;DHT22;44579;51.672;7.834;2023-12-20T14:41:59;7.90;97.30
58809;DHT22;44579;51.672;7.834;2023-12-20T14:44:26;8.00;97.30
58809;DHT22;44579;51.672;7.834;2023-12-20T14:46:53;8.00;97.30
58809;DHT22;44579;51.672;7.834;2023-12-20T14:49:20;8.00;97.30
58809;DHT22;44579;51.672;7.834;2023-12-20T14:51:47;8.00;97.30
58809;DHT22;44579;51.672;7.834;2023-12-20T14:54:14;8.00;97.30
58809;DHT22;44579;51.672;7.834;2023-12-20T14:56:41;8.00;97.20
58809;DHT22;44579;51.672;7.834;2023-12-20T14:59:08;8.00;97.20
58809;DHT22;44579;51.672;7.834;2023-12-20T15:01:35;8.00;97.20
58809;DHT22;44579;51.672;7.834;2023-12-20T15:04:03;8.00;97.20
58809;DHT22;44579;51.672;7.834;2023-12-20T15:06:30;8.00;97.20
58809;DHT22;44579;51.672;7.834;2023-12-20T15:08:58;8.00;97.20
58809;DHT22;44579;51.672;7.834;2023-12-20T15:11:25;8.00;97.10
58809;DHT22;44579;51.672;7.834;2023-12-20T15:13:53;8.00;97.10
58809;DHT22;44579;51.672;7.834;2023-12-20T15:16:23;7.90;97.10
58809;DHT22;44579;51.672;7.834;2023-12-20T15:18:50;7.90;97.10
58809;DHT22;44579;51.672;7.834;2023-12-20T15:21:17;7.90;97.10
58809;DHT22;44579;51.672;7.834;2023-12-20T15:23:44;7.90;97.10
58809;DHT22;44579;51.672;7.834;2023-12-20T15:26:19;7.90;97.10
58809;DHT22;44579;51.672;7.834;2023-12-20T15:28:47;7.90;97.00
58809;DHT22;44579;51.672;7.834;2023-12-20T15:31:14;7.90;97.00
58809;DHT22;44579;51.672;7.834;2023-12-20T15:33:42;7.80;97.00
58809;DHT22;44579;51.672;7.834;2023-12-20T15:36:11;7.80;97.00
58809;DHT22;44579;51.672;7.834;2023-12-20T15:38:38;7.80;97.00
58809;DHT22;44579;51.672;7.834;2023-12-20T15:41:18;7.80;97.00
58809;DHT22;44579;51.672;7.834;2023-12-20T15:43:45;7.80;97.00
58809;DHT22;44579;51.672;7.834;2023-12-20T15:46:17;7.80;97.00
58809;DHT22;44579;51.672;7.834;2023-12-20T15:48:44;7.80;97.00
58809;DHT22;44579;51.672;7.834;2023-12-20T15:51:12;7.80;97.30
58809;DHT22;44579;51.672;7.834;2023-12-20T15:53:38;7.80;96.90
58809;DHT22;44579;51.672;7.834;2023-12-20T15:56:05;7.80;96.90
58809;DHT22;44579;51.672;7.834;2023-12-20T15:58:32;7.80;96.90